Time;durP1;ratioP1;P1;durP2;ratioP2;P2;SDS_P1;SDS_P2;PMS_P1;PMS_P2;Temp;Humidity;BMP_temperature;BMP_pressure;BME280_temperature;BME280_humidity;BME280_pressure;Samples;Min_cycle;Max_cycle;Signal;HPM_P1;HPM_P2
2022/07/21 00:01:01;;;;;;;3.30;1.60;;;;;;;16.79;56.39;99619.68;1689465;83;21512;-68
2022/07/21 00:03:28;;;;;;;5.22;1.95;;;;;;;16.77;56.43;99623.77;1700067;83;21545;-67
2022/07/21 00:05:54;;;;;;;4.12;1.82;;;;;;;16.69;56.76;99618.98;1696032;83;21844;-68
2022/07/21 00:08:21;;;;;;;3.05;1.92;;;;;;;16.68;56.88;99625.72;1695345;83;21501;-68
2022/07/21 00:10:48;;;;;;;3.92;1.80;;;;;;;16.74;56.95;99614.67;1753652;80;21495;-68
2022/07/21 00:13:14;;;;;;;3.58;1.60;;;;;;;16.68;57.01;99623.91;1748459;80;21455;-68
2022/07/21 00:15:41;;;;;;;3.65;1.65;;;;;;;16.63;57.21;99626.05;1742543;80;21009;-68
2022/07/21 00:18:07;;;;;;;2.80;1.52;;;;;;;16.61;57.20;99621.78;1761799;80;22115;-70
2022/07/21 00:20:35;;;;;;;7.80;2.05;;;;;;;16.55;57.24;99618.58;1744728;80;21558;-68
2022/07/21 00:23:02;;;;;;;6.35;1.65;;;;;;;16.55;57.05;99617.73;1745615;80;21444;-68
2022/07/21 00:25:29;;;;;;;3.62;1.70;;;;;;;16.50;57.22;99619.84;1757387;80;21509;-68
2022/07/21 00:27:56;;;;;;;3.12;1.57;;;;;;;16.53;57.18;99628.94;1754784;80;21022;-69
2022/07/21 00:30:22;;;;;;;1.40;1.30;;;;;;;16.48;57.19;99625.28;1738230;80;22172;-67
2022/07/21 00:32:50;;;;;;;1.85;1.75;;;;;;;16.65;56.78;99617.50;1749196;80;21540;-67
2022/07/21 00:35:17;;;;;;;2.37;1.55;;;;;;;16.44;57.14;99622.44;1753759;80;21529;-67
2022/07/21 00:37:43;;;;;;;3.67;1.60;;;;;;;16.42;57.11;99624.83;1747838;80;21485;-68
2022/07/21 00:40:11;;;;;;;6.22;1.65;;;;;;;16.41;57.52;99626.64;1745743;80;21560;-68
2022/07/21 00:42:38;;;;;;;1.57;1.47;;;;;;;16.37;57.22;99626.48;1761087;80;21879;-68
2022/07/21 00:45:06;;;;;;;10.53;2.00;;;;;;;16.38;57.56;99626.84;1747683;80;21049;-68
2022/07/21 00:47:33;;;;;;;6.15;1.30;;;;;;;16.42;57.64;99634.95;1760165;80;21503;-68
2022/07/21 00:50:04;;;;;;;2.40;1.37;;;;;;;16.42;57.73;99627.48;1746788;80;21523;-68
2022/07/21 00:52:31;;;;;;;3.72;1.42;;;;;;;16.44;57.14;99624.25;1758441;80;21518;-70
2022/07/21 00:54:57;;;;;;;2.50;1.45;;;;;;;16.42;57.38;99626.16;1764438;80;21853;-70
2022/07/21 00:57:23;;;;;;;7.25;2.02;;;;;;;16.38;57.34;99624.67;1749536;80;21532;-69
2022/07/21 00:59:50;;;;;;;3.67;1.60;;;;;;;16.33;57.52;99624.96;1751592;80;21594;-69
2022/07/21 01:02:17;;;;;;;4.60;1.40;;;;;;;16.30;57.56;99623.86;1756204;80;21501;-69
2022/07/21 01:04:43;;;;;;;4.67;1.60;;;;;;;16.29;57.60;99619.03;1743811;80;21508;-70
2022/07/21 01:07:10;;;;;;;4.05;1.20;;;;;;;16.22;57.74;99620.39;1749556;80;22193;-69
2022/07/21 01:09:37;;;;;;;4.55;1.50;;;;;;;16.22;57.89;99624.38;1752554;80;21439;-70
2022/07/21 01:12:06;;;;;;;3.75;1.60;;;;;;;16.22;57.81;99620.84;1753341;80;21080;-69
2022/07/21 01:14:33;;;;;;;7.65;1.50;;;;;;;16.30;57.88;99623.86;1750894;80;20970;-69
2022/07/21 01:17:02;;;;;;;1.90;1.57;;;;;;;16.22;57.92;99625.70;1752277;80;21097;-68
2022/07/21 01:19:30;;;;;;;2.00;1.22;;;;;;;16.14;57.95;99624.88;1746051;80;21598;-68
2022/07/21 01:21:57;;;;;;;5.37;1.42;;;;;;;16.13;58.07;99622.33;1750065;80;21581;-69
2022/07/21 01:24:23;;;;;;;1.37;1.25;;;;;;;16.11;58.01;99621.58;1754536;80;21517;-68
2022/07/21 01:26:52;;;;;;;2.15;1.37;;;;;;;16.12;58.02;99620.61;1761200;80;21597;-68
2022/07/21 01:29:20;;;;;;;3.37;1.07;;;;;;;16.18;57.84;99618.03;1751713;80;21575;-69
2022/07/21 01:31:47;;;;;;;2.30;1.10;;;;;;;16.15;58.17;99617.77;1745793;80;21780;-69
2022/07/21 01:34:14;;;;;;;2.20;1.20;;;;;;;16.15;58.37;99619.09;1750789;80;21440;-69
2022/07/21 01:36:42;;;;;;;5.53;1.98;;;;;;;16.12;58.21;99613.98;1740723;80;21488;-69
2022/07/21 01:41:54;;;;;;;5.08;1.20;;;;;;;16.10;58.64;99620.70;1745972;80;21569;-68
2022/07/21 01:44:21;;;;;;;2.20;1.75;;;;;;;16.03;58.23;99618.56;1717100;82;21567;-68
2022/07/21 01:46:50;;;;;;;2.62;0.98;;;;;;;16.01;58.10;99611.19;1745331;80;21519;-68
2022/07/21 01:49:18;;;;;;;5.17;1.55;;;;;;;15.80;58.39;99579.83;1745391;80;21504;-69
2022/07/21 01:51:47;;;;;;;4.17;1.50;;;;;;;15.98;58.41;99612.25;1754740;80;21432;-69
2022/07/21 01:54:13;;;;;;;3.58;1.55;;;;;;;15.99;58.49;99613.94;1742682;80;21407;-69
2022/07/21 01:56:40;;;;;;;3.35;1.77;;;;;;;15.98;58.51;99614.91;1763143;80;21874;-69
2022/07/21 01:59:07;;;;;;;2.85;1.27;;;;;;;16.00;58.57;99609.50;1749742;80;21538;-68
2022/07/21 02:01:34;;;;;;;3.65;1.32;;;;;;;16.01;58.69;99603.23;1748847;80;21653;-70
2022/07/21 02:04:02;;;;;;;4.00;1.25;;;;;;;16.02;58.83;99613.74;1751173;80;21506;-70
2022/07/21 02:06:31;;;;;;;6.67;1.40;;;;;;;15.94;58.64;99611.59;1754968;80;21031;-70
2022/07/21 02:08:58;;;;;;;2.67;1.37;;;;;;;15.89;58.73;99615.02;1751173;80;21683;-71
2022/07/21 02:11:25;;;;;;;3.10;1.30;;;;;;;15.87;58.73;99601.50;1749733;80;20953;-70
2022/07/21 02:13:51;;;;;;;3.75;1.32;;;;;;;15.92;58.65;99608.69;1737196;80;21485;-70
2022/07/21 02:16:20;;;;;;;3.87;1.50;;;;;;;15.91;58.65;99602.99;1751325;80;21520;-70
2022/07/21 02:18:46;;;;;;;2.62;1.32;;;;;;;15.87;58.84;99599.69;1749025;80;21439;-71
2022/07/21 02:21:14;;;;;;;5.43;1.50;;;;;;;15.86;58.82;99607.73;1758661;80;21859;-70
2022/07/21 02:23:40;;;;;;;1.87;1.33;;;;;;;15.88;58.93;99604.51;1742950;80;20933;-70
2022/07/21 02:26:07;;;;;;;1.55;1.40;;;;;;;15.85;58.95;99601.59;1752281;80;21066;-68
2022/07/21 02:28:33;;;;;;;2.52;1.45;;;;;;;15.83;59.13;99609.28;1756685;80;21554;-69
2022/07/21 02:31:00;;;;;;;4.17;1.37;;;;;;;15.76;59.16;99604.39;1754911;80;21561;-69
2022/07/21 02:33:26;;;;;;;2.25;1.35;;;;;;;15.78;59.33;99602.94;1739520;80;21895;-69
2022/07/21 02:35:53;;;;;;;3.52;1.60;;;;;;;15.76;59.57;99603.52;1742316;80;21527;-69
2022/07/21 02:38:20;;;;;;;6.55;1.65;;;;;;;15.73;59.71;99605.91;1756112;80;21560;-69
2022/07/21 02:40:46;;;;;;;1.82;1.47;;;;;;;15.75;59.31;99603.16;1735622;80;21577;-70
2022/07/21 02:43:13;;;;;;;5.20;2.02;;;;;;;15.77;59.43;99599.92;1747129;80;21471;-68
2022/07/21 02:45:41;;;;;;;3.00;1.75;;;;;;;15.72;59.60;99601.50;1742349;80;21606;-68
2022/07/21 02:48:10;;;;;;;4.08;1.55;;;;;;;15.69;59.70;99600.39;1754113;80;21531;-68
2022/07/21 02:50:39;;;;;;;3.62;1.75;;;;;;;15.73;59.80;99603.70;1758824;80;21463;-68
2022/07/21 02:53:09;;;;;;;6.87;1.80;;;;;;;15.70;59.80;99599.91;1763580;80;21487;-68
2022/07/21 02:55:36;;;;;;;1.92;1.70;;;;;;;15.72;59.74;99599.34;1765194;80;21453;-68
2022/07/21 02:58:17;;;;;;;1.72;1.35;;;;;;;15.74;60.01;99602.77;1748136;80;21766;-68
2022/07/21 03:01:03;;;;;;;1.52;1.30;;;;;;;15.81;59.68;99592.62;1757342;80;21415;-68
2022/07/21 03:03:34;;;;;;;1.92;1.67;;;;;;;15.83;59.46;99592.05;1768538;80;21452;-68
2022/07/21 03:06:00;;;;;;;2.80;1.50;;;;;;;15.76;59.89;99588.94;1760394;80;21661;-69
2022/07/21 03:08:28;;;;;;;3.08;1.85;;;;;;;15.76;59.59;99590.26;1760110;80;21533;-68
2022/07/21 03:10:55;;;;;;;1.65;1.55;;;;;;;15.79;59.88;99594.05;1754386;80;21450;-69
2022/07/21 03:13:22;;;;;;;2.75;1.40;;;;;;;15.77;60.10;99589.33;1763496;80;21574;-69
2022/07/21 03:15:49;;;;;;;4.20;1.40;;;;;;;15.93;59.89;99586.51;1755454;80;21453;-69
2022/07/21 03:18:16;;;;;;;1.60;1.30;;;;;;;16.05;59.58;99592.34;1766128;80;21532;-69
2022/07/21 03:20:43;;;;;;;2.58;1.52;;;;;;;16.05;59.58;99592.34;1757996;80;21582;-68
2022/07/21 03:23:11;;;;;;;5.72;1.52;;;;;;;15.97;59.81;99582.69;1762889;80;21605;-69
2022/07/21 03:25:38;;;;;;;5.37;1.60;;;;;;;16.03;59.89;99586.29;1749235;80;20932;-68
2022/07/21 03:28:06;;;;;;;1.50;1.40;;;;;;;16.04;60.34;99588.45;1767350;80;21581;-68
2022/07/21 03:30:35;;;;;;;6.10;1.90;;;;;;;16.10;60.00;99586.71;1765469;80;21431;-68
2022/07/21 03:33:01;;;;;;;4.85;1.32;;;;;;;16.17;59.74;99585.84;1769917;80;21497;-68
2022/07/21 03:35:28;;;;;;;3.72;1.60;;;;;;;16.28;59.51;99586.81;1760178;80;22345;-68
2022/07/21 03:37:59;;;;;;;8.33;1.70;;;;;;;16.29;59.44;99591.19;1763386;80;21416;-69
2022/07/21 03:40:29;;;;;;;2.77;1.45;;;;;;;16.37;59.25;99585.81;1767749;80;21450;-68
2022/07/21 03:42:58;;;;;;;4.25;1.80;;;;;;;16.43;59.19;99586.74;1765796;80;20938;-69
2022/07/21 03:45:27;;;;;;;3.85;1.65;;;;;;;16.48;58.95;99577.97;1768194;80;21409;-68
2022/07/21 03:47:53;;;;;;;7.22;1.57;;;;;;;16.57;58.88;99583.14;1756898;80;21461;-68
2022/07/21 03:50:21;;;;;;;5.05;1.30;;;;;;;16.66;58.69;99581.17;1755591;80;21447;-68
2022/07/21 03:52:48;;;;;;;2.85;1.20;;;;;;;16.78;58.19;99575.00;1761744;80;21053;-68
2022/07/21 03:55:17;;;;;;;2.00;1.42;;;;;;;16.79;58.47;99578.53;1754879;80;21613;-68
2022/07/21 03:57:48;;;;;;;4.42;1.50;;;;;;;16.95;58.37;99583.15;1741626;80;21557;-68
2022/07/21 04:00:25;;;;;;;4.83;1.45;;;;;;;16.95;58.34;99578.32;1753886;80;22056;-68
2022/07/21 04:02:52;;;;;;;3.22;1.40;;;;;;;17.08;57.95;99578.70;1758366;80;21432;-68
2022/07/21 04:05:19;;;;;;;2.27;1.30;;;;;;;17.06;58.14;99573.95;1761522;80;21601;-68
2022/07/21 04:07:49;;;;;;;1.95;1.30;;;;;;;17.22;57.60;99563.58;1765359;80;21716;-70
2022/07/21 04:10:20;;;;;;;3.30;1.20;;;;;;;17.21;57.82;99563.20;1752055;80;21540;-69
2022/07/21 04:12:47;;;;;;;2.40;1.52;;;;;;;17.28;57.52;99556.48;1762459;80;21782;-68
2022/07/21 04:15:15;;;;;;;5.85;1.37;;;;;;;17.32;57.55;99563.27;1756544;80;21396;-67
2022/07/21 04:17:43;;;;;;;1.80;1.50;;;;;;;17.34;57.99;99567.99;1744121;80;21500;-70
2022/07/21 04:20:10;;;;;;;4.20;1.40;;;;;;;17.38;58.21;99568.63;1755838;80;21600;-69
2022/07/21 04:22:38;;;;;;;;;;;;;;;17.43;58.11;99563.84;1763665;80;21490;-69
2022/07/21 04:25:05;;;;;;;3.85;1.37;;;;;;;17.50;57.80;99564.60;1753515;80;22173;-69
2022/07/21 04:27:34;;;;;;;2.05;1.37;;;;;;;17.58;57.30;99569.36;1764823;80;20990;-69
2022/07/21 04:30:01;;;;;;;3.67;1.12;;;;;;;17.69;57.05;99562.77;1756385;80;21019;-71
2022/07/21 04:32:28;;;;;;;3.13;1.47;;;;;;;17.76;56.61;99564.48;1760089;80;21457;-71
2022/07/21 04:34:54;;;;;;;1.42;1.30;;;;;;;18.04;56.43;99562.47;1765879;80;21510;-68
2022/07/21 04:37:22;;;;;;;2.23;1.23;;;;;;;17.94;56.46;99562.31;1756344;80;21764;-69
2022/07/21 04:39:49;;;;;;;3.22;1.57;;;;;;;17.99;56.60;99563.28;1761435;80;21629;-72
2022/07/21 04:42:16;;;;;;;4.33;1.10;;;;;;;18.04;56.40;99566.45;1756966;80;21539;-71
2022/07/21 04:44:42;;;;;;;4.77;1.13;;;;;;;18.11;55.49;99557.55;1754180;80;21518;-75
2022/07/21 04:47:09;;;;;;;3.77;1.20;;;;;;;18.22;55.84;99564.23;1743216;80;22173;-70
2022/07/21 04:49:36;;;;;;;2.95;1.30;;;;;;;18.38;54.98;99558.08;1722255;82;21551;-68
2022/07/21 04:52:03;;;;;;;4.83;1.05;;;;;;;18.47;54.78;99564.03;1744284;80;21450;-69
2022/07/21 04:54:30;;;;;;;4.50;1.07;;;;;;;18.55;54.72;99567.93;1759654;80;21469;-76
2022/07/21 04:56:59;;;;;;;3.12;1.40;;;;;;;18.63;54.78;99573.53;1752549;80;21460;-69
2022/07/21 04:59:25;;;;;;;1.53;1.00;;;;;;;18.71;54.84;99579.09;1761909;79;21645;-68
2022/07/21 05:01:52;;;;;;;3.17;1.30;;;;;;;18.79;54.69;99572.68;1748852;80;22308;-67
2022/07/21 05:04:19;;;;;;;2.10;1.30;;;;;;;18.90;54.13;99562.55;1747778;79;21479;-68
2022/07/21 05:06:47;;;;;;;3.22;1.20;;;;;;;18.90;54.20;99563.05;1758948;80;21587;-68
2022/07/21 05:09:14;;;;;;;1.40;1.07;;;;;;;19.09;53.56;99571.27;1753712;80;21498;-68
2022/07/21 05:11:40;;;;;;;2.15;1.20;;;;;;;19.25;53.10;99558.92;1753033;80;21595;-68
2022/07/21 05:14:07;;;;;;;2.67;1.30;;;;;;;19.25;53.10;99558.92;1752740;80;22205;-70
2022/07/21 05:16:34;;;;;;;4.60;1.98;;;;;;;19.29;53.35;99561.69;1755351;80;21138;-70
2022/07/21 05:19:00;;;;;;;1.98;1.15;;;;;;;19.46;53.42;99561.66;1743799;80;21451;-68
2022/07/21 05:21:27;;;;;;;4.00;0.93;;;;;;;19.46;53.42;99561.66;1750646;80;21544;-68
2022/07/21 05:23:54;;;;;;;4.75;1.30;;;;;;;19.52;52.69;99557.66;1746127;80;22014;-70
2022/07/21 05:26:21;;;;;;;2.83;1.50;;;;;;;19.69;52.46;99554.44;1745184;80;22150;-68
2022/07/21 05:28:48;;;;;;;2.33;1.00;;;;;;;19.63;53.02;99560.29;1751422;80;21483;-70
2022/07/21 05:31:14;;;;;;;2.80;1.05;;;;;;;19.73;53.02;99551.91;1755877;80;21505;-67
2022/07/21 05:33:42;;;;;;;4.05;1.27;;;;;;;19.82;52.63;99549.82;1759387;80;21506;-68
2022/07/21 05:36:09;;;;;;;3.50;1.62;;;;;;;19.83;52.26;99543.98;1724162;80;21551;-69
2022/07/21 05:38:36;;;;;;;3.47;1.30;;;;;;;20.03;52.37;99543.67;1744659;80;21855;-71
2022/07/21 05:41:04;;;;;;;8.13;1.30;;;;;;;20.16;51.29;99548.34;1716783;82;21754;-72
2022/07/21 05:43:31;;;;;;;2.83;1.40;;;;;;;20.09;51.15;99534.30;1755570;80;20939;-71
2022/07/21 05:45:58;;;;;;;2.05;1.00;;;;;;;20.14;51.17;99534.27;1748072;80;21554;-70
2022/07/21 05:48:24;;;;;;;4.53;1.10;;;;;;;20.26;50.95;99528.87;1762334;80;21510;-69
2022/07/21 05:50:51;;;;;;;1.25;0.90;;;;;;;20.32;50.54;99545.20;1722290;82;21507;-68
2022/07/21 05:53:18;;;;;;;2.30;1.20;;;;;;;20.33;50.24;99529.55;1754189;80;21473;-68
2022/07/21 05:55:44;;;;;;;2.37;1.30;;;;;;;20.41;49.51;99528.89;1759933;80;21616;-68
2022/07/21 05:58:12;;;;;;;1.70;1.05;;;;;;;20.47;49.46;99539.04;1764310;80;21498;-69
2022/07/21 06:00:39;;;;;;;1.98;1.20;;;;;;;20.74;49.33;99531.86;1770162;80;21418;-68
2022/07/21 06:03:05;;;;;;;2.85;1.12;;;;;;;20.94;49.01;99536.77;1767388;80;21803;-69
2022/07/21 06:05:32;;;;;;;1.27;1.17;;;;;;;20.98;49.36;99536.02;1752852;80;21593;-69
2022/07/21 06:08:00;;;;;;;3.90;1.00;;;;;;;21.09;48.86;99530.56;1758356;80;21652;-69
2022/07/21 06:10:27;;;;;;;2.85;1.12;;;;;;;21.14;48.55;99522.99;1758469;80;21519;-67
2022/07/21 06:12:55;;;;;;;;;;;;;;;21.20;48.01;99532.30;1750256;80;21680;-68
2022/07/21 06:15:22;;;;;;;1.72;1.00;;;;;;;21.19;47.81;99523.44;1717327;82;21823;-67
2022/07/21 06:17:49;;;;;;;2.35;0.80;;;;;;;21.20;48.89;99528.28;1766175;80;21419;-71
2022/07/21 06:20:15;;;;;;;2.98;1.60;;;;;;;21.28;48.04;99524.42;1755102;80;21616;-65
2022/07/21 06:22:42;;;;;;;2.62;1.12;;;;;;;21.46;47.51;99532.67;1749649;80;21491;-67
2022/07/21 06:25:10;;;;;;;1.52;1.07;;;;;;;21.53;47.78;99523.12;1754616;80;21577;-68
2022/07/21 06:27:37;;;;;;;6.70;1.00;;;;;;;21.49;47.36;99516.36;1768255;80;21975;-67
2022/07/21 06:30:06;;;;;;;5.87;0.95;;;;;;;21.61;47.70;99526.44;1723021;82;21587;-68
2022/07/21 06:32:34;;;;;;;2.77;0.93;;;;;;;22.00;46.26;99515.73;1756339;80;20961;-69
2022/07/21 06:35:03;;;;;;;3.85;0.93;;;;;;;22.00;46.26;99515.73;1772758;79;21514;-67
2022/07/21 06:37:29;;;;;;;2.67;1.00;;;;;;;22.14;46.07;99515.28;1760963;79;21648;-73
2022/07/21 06:39:57;;;;;;;2.08;0.82;;;;;;;22.12;45.81;99523.95;1756629;80;21793;-72
2022/07/21 06:42:24;;;;;;;1.02;0.80;;;;;;;22.17;45.71;99512.83;1757497;80;21489;-71
2022/07/21 06:44:51;;;;;;;4.70;0.90;;;;;;;22.15;45.72;99509.42;1763467;80;21497;-70
2022/07/21 06:47:18;;;;;;;4.28;0.93;;;;;;;22.27;45.29;99502.97;1750387;80;21737;-69
2022/07/21 06:49:44;;;;;;;2.70;0.70;;;;;;;22.41;45.99;99490.11;1753943;80;21503;-69
2022/07/21 06:52:11;;;;;;;3.85;0.70;;;;;;;22.41;45.99;99490.11;1746966;80;21954;-68
2022/07/21 06:54:39;;;;;;;3.60;0.90;;;;;;;22.38;45.84;99499.29;1756899;80;21432;-65
2022/07/21 06:57:06;;;;;;;1.37;0.70;;;;;;;22.50;44.61;99488.73;1744027;81;21531;-69
2022/07/21 06:59:33;;;;;;;3.35;1.20;;;;;;;22.56;44.19;99483.28;1740519;80;21564;-67
2022/07/21 07:02:00;;;;;;;4.17;0.90;;;;;;;22.52;44.75;99485.41;1750503;81;21490;-69
2022/07/21 07:04:27;;;;;;;6.83;0.80;;;;;;;22.61;44.59;99476.16;1732604;80;23319;-69
2022/07/21 07:06:55;;;;;;;5.10;0.72;;;;;;;22.67;44.04;99483.61;1747920;80;21616;-70
2022/07/21 07:09:23;;;;;;;0.55;0.55;;;;;;;22.93;43.61;99475.22;1756074;80;21504;-70
2022/07/21 07:11:52;;;;;;;2.42;0.62;;;;;;;22.93;43.61;99475.22;1744270;80;21543;-71
2022/07/21 07:14:19;;;;;;;4.67;0.88;;;;;;;22.90;43.57;99478.19;1749806;80;21587;-68
2022/07/21 07:16:47;;;;;;;3.72;0.60;;;;;;;23.01;43.77;99470.95;1751134;80;20953;-69
2022/07/21 07:19:14;;;;;;;2.58;0.75;;;;;;;23.01;43.77;99470.95;1755012;80;21475;-69
2022/07/21 07:21:41;;;;;;;3.12;1.15;;;;;;;23.09;43.46;99467.05;1747367;81;21472;-70
2022/07/21 07:24:08;;;;;;;2.20;0.60;;;;;;;23.39;42.70;99466.37;1756764;80;21440;-69
2022/07/21 07:26:35;;;;;;;1.23;0.73;;;;;;;23.39;42.70;99466.37;1712952;81;21571;-70
2022/07/21 07:29:01;;;;;;;6.83;0.50;;;;;;;23.27;42.68;99471.95;1699587;83;22020;-67
2022/07/21 07:31:28;;;;;;;3.50;0.70;;;;;;;23.48;42.17;99462.77;1669118;84;21019;-68
2022/07/21 07:33:57;;;;;;;4.90;0.75;;;;;;;23.64;42.07;99464.27;1676906;83;21574;-66
2022/07/21 07:36:25;;;;;;;0.60;0.40;;;;;;;23.60;42.40;99460.22;1706299;81;21054;-66
2022/07/21 07:38:52;;;;;;;2.25;0.50;;;;;;;23.57;40.93;99455.14;1720158;82;21567;-67
2022/07/21 07:41:21;;;;;;;3.33;0.50;;;;;;;23.63;42.10;99452.34;1750447;80;21035;-67
2022/07/21 07:43:48;;;;;;;5.03;0.78;;;;;;;23.71;42.21;99448.38;1759791;80;20966;-65
2022/07/21 07:46:15;;;;;;;3.10;0.80;;;;;;;23.75;41.85;99448.41;1748137;80;21491;-65
2022/07/21 07:48:42;;;;;;;;;;;;;;;23.75;41.85;99448.41;1750688;80;21476;-67
2022/07/21 07:51:10;;;;;;;3.45;0.72;;;;;;;23.68;41.53;99453.56;1762467;80;20425;-66
2022/07/21 07:53:37;;;;;;;2.87;0.50;;;;;;;23.74;41.68;99446.73;1769249;80;21539;-65
2022/07/21 07:56:06;;;;;;;2.50;0.68;;;;;;;23.80;41.35;99454.70;1757432;80;21422;-67
2022/07/21 07:58:32;;;;;;;7.83;0.88;;;;;;;23.92;41.30;99443.20;1761664;80;21560;-68
2022/07/21 08:01:00;;;;;;;2.92;0.60;;;;;;;23.97;41.14;99443.08;1760322;80;21609;-69
2022/07/21 08:03:28;;;;;;;1.42;0.50;;;;;;;24.07;41.30;99438.47;1759242;80;21467;-67
2022/07/21 08:05:55;;;;;;;2.92;0.88;;;;;;;24.08;39.99;99431.25;1760515;80;21902;-73
2022/07/21 08:08:22;;;;;;;4.95;0.70;;;;;;;24.09;40.49;99436.94;1766641;80;21514;-70
2022/07/21 08:10:49;;;;;;;4.05;0.70;;;;;;;24.11;39.94;99421.55;1755514;80;21499;-69
2022/07/21 08:13:17;;;;;;;2.75;0.57;;;;;;;24.18;39.98;99443.22;1695645;83;21565;-69
2022/07/21 08:15:46;;;;;;;3.12;0.70;;;;;;;24.26;39.88;99428.02;1719026;82;21468;-70
2022/07/21 08:18:13;;;;;;;5.80;0.57;;;;;;;24.37;39.69;99432.75;1726812;82;22056;-69
2022/07/21 08:20:39;;;;;;;1.30;0.60;;;;;;;24.41;39.60;99433.64;1722951;82;21622;-69
2022/07/21 08:23:06;;;;;;;4.12;0.82;;;;;;;24.50;39.05;99429.13;1717183;82;21464;-71
2022/07/21 08:25:33;;;;;;;2.87;0.60;;;;;;;24.58;39.84;99429.70;1728201;82;21544;-71
2022/07/21 08:27:59;;;;;;;3.60;0.55;;;;;;;24.57;39.39;99419.97;1757571;80;21525;-69
2022/07/21 08:30:26;;;;;;;3.15;0.60;;;;;;;24.65;39.27;99423.52;1752054;80;21725;-65
2022/07/21 08:32:53;;;;;;;1.87;0.63;;;;;;;24.78;38.90;99416.34;1758956;80;21506;-66
2022/07/21 08:35:21;;;;;;;1.75;0.68;;;;;;;24.82;38.15;99408.28;1757392;80;22231;-70
2022/07/21 08:37:59;;;;;;;3.15;0.80;;;;;;;25.00;39.42;99410.03;1759486;80;21514;-71
2022/07/21 08:40:28;;;;;;;2.40;0.60;;;;;;;25.15;38.14;99408.89;1759924;79;21589;-68
2022/07/21 08:42:54;;;;;;;0.93;0.80;;;;;;;25.17;38.91;99413.09;1757571;80;21838;-69
2022/07/21 08:45:23;;;;;;;4.30;0.80;;;;;;;25.26;39.03;99399.20;1760089;80;21053;-68
2022/07/21 08:47:55;;;;;;;3.67;0.62;;;;;;;25.43;38.30;99393.32;1738880;80;21491;-70
2022/07/21 08:50:31;;;;;;;5.37;0.90;;;;;;;25.60;37.97;99395.52;1751086;80;21576;-72
2022/07/21 08:52:58;;;;;;;2.72;0.78;;;;;;;25.61;37.89;99385.89;1753312;80;21617;-72
2022/07/21 08:55:31;;;;;;;1.17;0.68;;;;;;;25.66;37.50;99389.96;1760374;80;22218;-70
2022/07/21 08:57:58;;;;;;;3.62;0.70;;;;;;;25.67;37.84;99381.69;1751695;80;21006;-68
2022/07/21 09:00:26;;;;;;;2.52;0.78;;;;;;;25.80;37.48;99387.91;1752843;80;21546;-70
2022/07/21 09:03:20;;;;;;;3.17;0.93;;;;;;;25.78;36.61;99379.16;1752453;79;21507;-68
2022/07/21 09:06:10;;;;;;;6.50;1.15;;;;;;;25.77;37.25;99385.06;1745577;80;21803;-67
2022/07/21 09:08:40;;;;;;;3.67;0.82;;;;;;;25.77;36.53;99370.77;1744820;80;21779;-66
2022/07/21 09:11:17;;;;;;;2.80;0.80;;;;;;;25.75;37.25;99364.20;1745891;80;21523;-69
2022/07/21 09:13:51;;;;;;;1.35;1.10;;;;;;;25.83;37.06;99370.91;1710913;82;21574;-67
2022/07/21 09:16:15;;;;;;;2.40;1.47;;;;;;;25.79;36.72;99366.88;1743648;80;21679;-66
2022/07/21 09:18:52;;;;;;;1.52;1.40;;;;;;;25.76;36.68;99371.77;1733962;80;21621;-66
2022/07/21 09:21:18;;;;;;;4.70;2.92;;;;;;;25.74;37.32;99365.20;1752491;80;21810;-69
2022/07/21 09:23:47;;;;;;;1.30;1.20;;;;;;;25.83;36.87;99361.48;1754194;80;21532;-67
2022/07/21 09:26:15;;;;;;;2.60;1.70;;;;;;;25.92;37.44;99361.48;1757182;80;21518;-68
2022/07/21 09:28:42;;;;;;;4.05;2.15;;;;;;;26.00;36.93;99354.23;1742042;80;21498;-69
2022/07/21 09:31:11;;;;;;;5.30;2.30;;;;;;;26.08;37.72;99357.94;1746206;80;21463;-68
2022/07/21 09:33:45;;;;;;;1.75;1.00;;;;;;;26.08;36.57;99352.03;1746132;80;21770;-70
2022/07/21 09:36:18;;;;;;;2.87;0.72;;;;;;;26.11;37.49;99349.00;1747034;80;21475;-69
2022/07/21 09:38:51;;;;;;;1.15;0.60;;;;;;;26.24;37.14;99344.42;1752952;80;21534;-69
2022/07/21 09:41:20;;;;;;;1.35;0.80;;;;;;;26.36;36.97;99336.78;1737579;80;21161;-69
2022/07/21 09:43:50;;;;;;;1.87;0.80;;;;;;;26.47;36.42;99335.05;1749369;80;21531;-68
2022/07/21 09:46:24;;;;;;;6.85;1.22;;;;;;;26.45;36.66;99328.13;1750529;80;21748;-70
2022/07/21 09:48:56;;;;;;;3.72;1.10;;;;;;;26.42;36.44;99327.47;1749642;80;21446;-70
2022/07/21 09:51:29;;;;;;;5.30;2.40;;;;;;;26.45;36.07;99322.26;1756024;80;21409;-68
2022/07/21 09:54:03;;;;;;;2.10;1.17;;;;;;;26.46;36.76;99329.83;1759790;80;21610;-69
2022/07/21 09:56:33;;;;;;;5.58;1.32;;;;;;;26.41;36.93;99327.16;1764355;79;21424;-67
2022/07/21 09:59:01;;;;;;;3.25;0.70;;;;;;;26.57;36.76;99305.17;1763997;79;21506;-68
2022/07/21 10:01:28;;;;;;;0.68;0.68;;;;;;;26.70;36.66;99305.46;1772695;79;21405;-67
2022/07/21 10:03:56;;;;;;;5.85;0.78;;;;;;;26.82;36.09;99311.80;1757045;79;21087;-67
2022/07/21 10:06:27;;;;;;;4.20;1.40;;;;;;;26.91;36.57;99301.28;1771425;79;21508;-69
2022/07/21 10:08:58;;;;;;;2.05;1.50;;;;;;;26.97;36.38;99309.51;1764063;80;21432;-68
2022/07/21 10:11:25;;;;;;;6.10;1.12;;;;;;;26.96;35.48;99299.72;1756106;80;21422;-67
2022/07/21 10:13:54;;;;;;;3.87;1.72;;;;;;;26.88;35.79;99295.75;1753330;79;21037;-67
2022/07/21 10:16:21;;;;;;;2.70;1.70;;;;;;;26.83;35.69;99294.61;1757772;80;21597;-71
2022/07/21 10:19:08;;;;;;;3.92;1.52;;;;;;;26.87;35.97;99309.41;1759250;80;21549;-72
2022/07/21 10:21:43;;;;;;;5.15;1.10;;;;;;;26.96;35.86;99299.72;1762054;79;20991;-71
2022/07/21 10:24:11;;;;;;;1.52;0.80;;;;;;;27.12;35.90;99293.87;1767253;79;22157;-71
2022/07/21 10:27:00;;;;;;;3.52;0.90;;;;;;;27.15;36.74;99310.54;1758093;79;21487;-71
2022/07/21 10:29:55;;;;;;;1.27;1.10;;;;;;;27.26;36.38;99308.48;1754356;80;21011;-69
2022/07/21 10:32:27;;;;;;;5.20;1.30;;;;;;;27.36;35.02;99292.34;1761116;80;21459;-67
2022/07/21 10:34:55;;;;;;;3.58;1.90;;;;;;;27.46;35.74;99302.87;1757847;80;20948;-68
2022/07/21 10:37:42;;;;;;;3.83;2.25;;;;;;;27.47;35.28;99301.03;1765228;79;21794;-68
2022/07/21 10:40:31;;;;;;;4.95;1.30;;;;;;;27.60;36.87;99310.69;1685018;83;21443;-68
2022/07/21 10:43:07;;;;;;;2.55;1.50;;;;;;;27.74;34.67;99304.45;1758186;79;21404;-70
2022/07/21 10:45:39;;;;;;;2.77;1.45;;;;;;;28.02;35.36;99301.66;1761408;79;21467;-66
2022/07/21 10:48:09;;;;;;;3.10;1.55;;;;;;;28.02;35.36;99301.66;1763904;80;21452;-67
2022/07/21 10:50:41;;;;;;;3.70;1.42;;;;;;;28.03;34.87;99304.67;1757007;80;21801;-70
2022/07/21 10:53:14;;;;;;;1.10;0.95;;;;;;;28.02;34.36;99316.00;1753253;80;21424;-70
2022/07/21 10:55:51;;;;;;;7.37;1.20;;;;;;;28.12;34.95;99304.91;1752869;80;21483;-68
2022/07/21 10:58:41;;;;;;;1.22;1.05;;;;;;;28.30;34.53;99293.19;1751854;80;21599;-68
2022/07/21 11:04:13;;;;;;;3.85;1.35;;;;;;;27.99;35.23;99300.19;1783709;79;23195;-68
2022/07/21 11:06:40;;;;;;;3.22;1.10;;;;;;;28.02;35.36;99299.79;1736734;80;20986;-68
2022/07/21 11:09:10;;;;;;;;;;;;;;;27.96;34.55;99307.30;1746061;80;21782;-68
2022/07/21 11:11:41;;;;;;;2.72;1.10;;;;;;;27.92;34.36;99299.25;1731506;80;20448;-67
2022/07/21 11:14:10;;;;;;;2.40;1.10;;;;;;;27.87;34.97;99295.70;1734858;80;21538;-69
2022/07/21 11:16:49;;;;;;;2.75;1.00;;;;;;;28.01;34.98;99298.63;1731805;80;21487;-70
2022/07/21 11:19:42;;;;;;;1.77;1.67;;;;;;;27.97;34.99;99290.05;1743320;80;21545;-69
2022/07/21 11:22:14;;;;;;;2.55;1.25;;;;;;;28.08;34.84;99288.75;1740883;79;21713;-67
2022/07/21 11:24:45;;;;;;;3.17;1.55;;;;;;;28.00;34.62;99295.09;1738227;80;21557;-72
2022/07/21 11:27:15;;;;;;;4.62;1.20;;;;;;;27.89;35.17;99299.09;1740819;79;21617;-68
2022/07/21 11:29:44;;;;;;;1.27;1.10;;;;;;;27.76;34.68;99297.03;1753935;80;21534;-66
2022/07/21 11:32:11;;;;;;;5.40;1.07;;;;;;;27.78;35.18;99296.81;1743067;79;21362;-68
2022/07/21 11:34:49;;;;;;;3.05;1.20;;;;;;;27.95;34.75;99275.41;1736444;80;21726;-66
2022/07/21 11:37:30;;;;;;;1.98;1.20;;;;;;;28.06;34.88;99277.29;1738914;79;21592;-69
2022/07/21 11:39:58;;;;;;;4.22;1.20;;;;;;;28.08;34.70;99280.64;1722983;80;21457;-67
2022/07/21 11:42:26;;;;;;;2.80;1.60;;;;;;;28.05;34.40;99270.20;1728079;79;21591;-66
2022/07/21 11:44:54;;;;;;;3.55;1.32;;;;;;;28.09;34.90;99276.41;1729126;78;21737;-67
2022/07/21 11:47:25;;;;;;;1.47;1.32;;;;;;;28.09;34.63;99265.59;1742187;80;21471;-67